sensor_id;sensor_type;location;lat;lon;timestamp;pressure;altitude;pressure_sealevel;temperature;humidity
35151;BME280;55720;51.972;4.624;2023-02-22T00:00:21;100832.47;;;5.35;100.00
35151;BME280;55720;51.972;4.624;2023-02-22T00:02:50;100838.72;;;5.36;100.00
35151;BME280;55720;51.972;4.624;2023-02-22T00:05:17;100839.84;;;5.35;100.00
35151;BME280;55720;51.972;4.624;2023-02-22T00:07:45;100851.84;;;5.34;100.00
35151;BME280;55720;51.972;4.624;2023-02-22T00:10:12;100861.84;;;5.20;100.00
35151;BME280;55720;51.972;4.624;2023-02-22T00:12:41;100874.00;;;5.27;100.00
35151;BME280;55720;51.972;4.624;2023-02-22T00:15:08;100887.28;;;5.29;100.00
35151;BME280;55720;51.972;4.624;2023-02-22T00:17:34;100890.59;;;5.26;100.00
35151;BME280;55720;51.972;4.624;2023-02-22T00:19:59;100887.75;;;5.17;100.00
35151;BME280;55720;51.972;4.624;2023-02-22T00:22:24;100901.38;;;5.17;100.00
35151;BME280;55720;51.972;4.624;2023-02-22T00:24:50;100903.28;;;5.17;100.00
35151;BME280;55720;51.972;4.624;2023-02-22T00:27:15;100910.75;;;5.25;100.00
35151;BME280;55720;51.972;4.624;2023-02-22T00:29:45;100926.00;;;5.26;100.00
35151;BME280;55720;51.972;4.624;2023-02-22T00:32:11;100921.66;;;5.25;100.00
35151;BME280;55720;51.972;4.624;2023-02-22T00:34:36;100938.06;;;5.20;100.00
35151;BME280;55720;51.972;4.624;2023-02-22T00:37:01;100937.53;;;5.18;100.00
35151;BME280;55720;51.972;4.624;2023-02-22T00:39:29;100950.94;;;5.14;100.00
35151;BME280;55720;51.972;4.624;2023-02-22T00:41:54;100954.91;;;5.22;100.00
35151;BME280;55720;51.972;4.624;2023-02-22T00:44:21;100947.13;;;5.15;100.00
35151;BME280;55720;51.972;4.624;2023-02-22T00:46:46;100947.13;;;5.15;100.00
35151;BME280;55720;51.972;4.624;2023-02-22T00:49:12;100933.78;;;5.14;100.00
35151;BME280;55720;51.972;4.624;2023-02-22T00:51:37;100915.91;;;5.08;100.00
35151;BME280;55720;51.972;4.624;2023-02-22T00:54:03;100908.34;;;5.05;100.00
35151;BME280;55720;51.972;4.624;2023-02-22T00:56:31;100897.75;;;5.03;100.00
35151;BME280;55720;51.972;4.624;2023-02-22T00:58:58;100888.31;;;5.14;100.00
35151;BME280;55720;51.972;4.624;2023-02-22T01:01:25;100886.50;;;5.10;100.00
35151;BME280;55720;51.972;4.624;2023-02-22T01:03:53;100882.75;;;5.06;100.00
35151;BME280;55720;51.972;4.624;2023-02-22T01:06:19;100880.53;;;5.08;100.00
35151;BME280;55720;51.972;4.624;2023-02-22T01:08:45;100874.75;;;4.95;100.00
35151;BME280;55720;51.972;4.624;2023-02-22T01:11:12;100880.97;;;4.96;100.00
35151;BME280;55720;51.972;4.624;2023-02-22T01:13:39;100877.69;;;4.99;100.00
35151;BME280;55720;51.972;4.624;2023-02-22T01:16:05;100884.38;;;4.88;100.00
35151;BME280;55720;51.972;4.624;2023-02-22T01:18:33;100880.53;;;4.89;100.00
35151;BME280;55720;51.972;4.624;2023-02-22T01:21:00;100889.00;;;4.87;100.00
35151;BME280;55720;51.972;4.624;2023-02-22T01:23:28;100900.69;;;4.88;100.00
35151;BME280;55720;51.972;4.624;2023-02-22T01:25:53;100898.84;;;4.83;100.00
35151;BME280;55720;51.972;4.624;2023-02-22T01:28:19;100886.19;;;4.74;100.00
35151;BME280;55720;51.972;4.624;2023-02-22T01:30:46;100891.66;;;4.74;100.00
35151;BME280;55720;51.972;4.624;2023-02-22T01:33:12;100887.53;;;4.76;100.00
35151;BME280;55720;51.972;4.624;2023-02-22T01:35:41;100898.31;;;4.81;100.00
35151;BME280;55720;51.972;4.624;2023-02-22T01:38:10;100895.91;;;4.80;100.00
35151;BME280;55720;51.972;4.624;2023-02-22T01:40:38;100892.59;;;4.83;100.00
35151;BME280;55720;51.972;4.624;2023-02-22T01:43:41;100901.34;;;4.80;100.00
35151;BME280;55720;51.972;4.624;2023-02-22T01:46:19;100899.81;;;4.74;100.00
35151;BME280;55720;51.972;4.624;2023-02-22T01:51:19;100904.72;;;4.72;100.00
35151;BME280;55720;51.972;4.624;2023-02-22T01:56:20;100913.22;;;4.65;100.00
35151;BME280;55720;51.972;4.624;2023-02-22T01:58:50;100913.59;;;4.59;100.00
35151;BME280;55720;51.972;4.624;2023-02-22T02:01:17;100926.06;;;4.60;100.00
35151;BME280;55720;51.972;4.624;2023-02-22T02:03:44;100934.75;;;4.62;100.00
35151;BME280;55720;51.972;4.624;2023-02-22T02:06:13;100944.59;;;4.58;100.00
35151;BME280;55720;51.972;4.624;2023-02-22T02:09:00;100938.66;;;4.56;100.00
35151;BME280;55720;51.972;4.624;2023-02-22T02:11:27;100954.22;;;4.45;100.00
35151;BME280;55720;51.972;4.624;2023-02-22T02:13:55;100967.84;;;4.45;100.00
35151;BME280;55720;51.972;4.624;2023-02-22T02:16:30;100971.91;;;4.47;100.00
35151;BME280;55720;51.972;4.624;2023-02-22T02:18:59;100985.50;;;4.47;100.00
35151;BME280;55720;51.972;4.624;2023-02-22T02:21:38;100990.94;;;4.47;100.00
35151;BME280;55720;51.972;4.624;2023-02-22T02:27:12;100996.53;;;4.56;100.00
35151;BME280;55720;51.972;4.624;2023-02-22T02:32:20;101004.06;;;4.40;100.00
35151;BME280;55720;51.972;4.624;2023-02-22T02:40:20;101028.22;;;4.42;100.00
35151;BME280;55720;51.972;4.624;2023-02-22T02:42:59;101027.97;;;4.38;100.00
35151;BME280;55720;51.972;4.624;2023-02-22T02:45:37;101035.00;;;4.44;100.00
35151;BME280;55720;51.972;4.624;2023-02-22T02:48:06;101027.41;;;4.41;100.00
35151;BME280;55720;51.972;4.624;2023-02-22T02:50:41;101032.59;;;4.38;100.00
35151;BME280;55720;51.972;4.624;2023-02-22T02:53:08;101030.75;;;4.33;100.00
35151;BME280;55720;51.972;4.624;2023-02-22T02:55:36;101035.06;;;4.39;100.00
35151;BME280;55720;51.972;4.624;2023-02-22T02:58:05;101033.53;;;4.28;100.00
35151;BME280;55720;51.972;4.624;2023-02-22T03:00:36;101044.84;;;4.40;100.00
35151;BME280;55720;51.972;4.624;2023-02-22T03:11:20;101064.84;;;4.21;100.00
35151;BME280;55720;51.972;4.624;2023-02-22T03:16:40;101063.78;;;4.17;100.00
35151;BME280;55720;51.972;4.624;2023-02-22T03:24:32;101065.66;;;4.21;100.00
35151;BME280;55720;51.972;4.624;2023-02-22T03:27:17;101037.41;;;4.17;100.00
35151;BME280;55720;51.972;4.624;2023-02-22T03:29:47;101085.56;;;4.12;100.00
35151;BME280;55720;51.972;4.624;2023-02-22T03:32:21;101108.13;;;4.12;100.00
35151;BME280;55720;51.972;4.624;2023-02-22T03:35:10;101127.66;;;4.14;100.00
35151;BME280;55720;51.972;4.624;2023-02-22T03:37:41;101146.19;;;4.07;100.00
35151;BME280;55720;51.972;4.624;2023-02-22T03:42:50;101173.31;;;4.17;100.00
35151;BME280;55720;51.972;4.624;2023-02-22T03:45:20;101176.31;;;4.16;100.00
35151;BME280;55720;51.972;4.624;2023-02-22T03:47:53;101193.66;;;4.20;100.00
35151;BME280;55720;51.972;4.624;2023-02-22T03:50:42;101198.09;;;4.06;100.00
35151;BME280;55720;51.972;4.624;2023-02-22T03:53:08;101200.31;;;3.98;100.00
35151;BME280;55720;51.972;4.624;2023-02-22T03:55:34;101202.25;;;3.88;100.00
35151;BME280;55720;51.972;4.624;2023-02-22T03:58:04;101209.59;;;3.92;100.00
35151;BME280;55720;51.972;4.624;2023-02-22T04:00:32;101220.94;;;4.05;100.00
35151;BME280;55720;51.972;4.624;2023-02-22T04:02:59;101234.78;;;4.08;100.00
35151;BME280;55720;51.972;4.624;2023-02-22T04:05:25;101228.53;;;4.03;100.00
35151;BME280;55720;51.972;4.624;2023-02-22T04:07:54;101233.47;;;4.01;100.00
35151;BME280;55720;51.972;4.624;2023-02-22T04:10:21;101166.34;;;4.01;100.00
35151;BME280;55720;51.972;4.624;2023-02-22T04:12:47;101215.47;;;4.10;100.00
35151;BME280;55720;51.972;4.624;2023-02-22T04:15:16;101235.03;;;4.07;100.00
35151;BME280;55720;51.972;4.624;2023-02-22T04:17:42;101258.75;;;3.96;100.00
35151;BME280;55720;51.972;4.624;2023-02-22T04:20:08;101264.69;;;4.03;100.00
35151;BME280;55720;51.972;4.624;2023-02-22T04:22:34;101295.13;;;4.05;100.00
35151;BME280;55720;51.972;4.624;2023-02-22T04:24:59;101302.19;;;4.01;100.00
35151;BME280;55720;51.972;4.624;2023-02-22T04:27:25;101309.56;;;3.90;100.00
35151;BME280;55720;51.972;4.624;2023-02-22T04:29:50;101300.56;;;3.95;100.00
35151;BME280;55720;51.972;4.624;2023-02-22T04:32:16;101306.56;;;3.97;100.00
35151;BME280;55720;51.972;4.624;2023-02-22T04:34:42;101341.59;;;3.98;100.00
35151;BME280;55720;51.972;4.624;2023-02-22T04:37:07;101361.97;;;3.96;100.00
35151;BME280;55720;51.972;4.624;2023-02-22T04:39:34;101404.34;;;3.92;100.00
35151;BME280;55720;51.972;4.624;2023-02-22T04:42:00;101423.13;;;3.93;100.00
35151;BME280;55720;51.972;4.624;2023-02-22T04:44:26;101438.03;;;3.96;100.00
35151;BME280;55720;51.972;4.624;2023-02-22T04:46:51;101461.16;;;3.93;100.00
35151;BME280;55720;51.972;4.624;2023-02-22T04:49:17;101478.28;;;3.94;100.00
35151;BME280;55720;51.972;4.624;2023-02-22T04:51:42;101505.41;;;3.99;100.00
35151;BME280;55720;51.972;4.624;2023-02-22T04:54:08;101535.59;;;3.97;100.00
35151;BME280;55720;51.972;4.624;2023-02-22T04:56:34;101561.13;;;4.07;100.00
35151;BME280;55720;51.972;4.624;2023-02-22T04:59:00;101579.88;;;3.93;100.00
35151;BME280;55720;51.972;4.624;2023-02-22T05:01:35;101594.25;;;3.98;100.00
35151;BME280;55720;51.972;4.624;2023-02-22T05:04:02;101621.69;;;3.92;100.00
35151;BME280;55720;51.972;4.624;2023-02-22T05:06:28;101628.19;;;3.91;100.00
35151;BME280;55720;51.972;4.624;2023-02-22T05:08:53;101635.00;;;3.98;100.00
35151;BME280;55720;51.972;4.624;2023-02-22T05:11:19;101653.72;;;3.85;100.00
35151;BME280;55720;51.972;4.624;2023-02-22T05:13:45;101649.94;;;3.91;100.00
35151;BME280;55720;51.972;4.624;2023-02-22T05:16:11;101657.56;;;3.99;100.00
35151;BME280;55720;51.972;4.624;2023-02-22T05:18:36;101647.78;;;3.93;100.00
35151;BME280;55720;51.972;4.624;2023-02-22T05:21:02;101652.94;;;3.94;100.00
35151;BME280;55720;51.972;4.624;2023-02-22T05:23:27;101655.94;;;4.03;100.00
35151;BME280;55720;51.972;4.624;2023-02-22T05:25:53;101659.47;;;3.98;100.00
35151;BME280;55720;51.972;4.624;2023-02-22T05:28:19;101673.88;;;3.94;100.00
35151;BME280;55720;51.972;4.624;2023-02-22T05:30:44;101679.31;;;3.99;100.00
35151;BME280;55720;51.972;4.624;2023-02-22T05:33:10;101666.81;;;4.03;100.00
35151;BME280;55720;51.972;4.624;2023-02-22T05:35:35;101683.66;;;4.00;100.00
35151;BME280;55720;51.972;4.624;2023-02-22T05:38:04;101685.31;;;4.01;100.00
35151;BME280;55720;51.972;4.624;2023-02-22T05:40:31;101676.31;;;3.95;100.00
35151;BME280;55720;51.972;4.624;2023-02-22T05:42:57;101634.75;;;4.00;100.00
35151;BME280;55720;51.972;4.624;2023-02-22T05:45:26;101644.00;;;4.04;100.00
35151;BME280;55720;51.972;4.624;2023-02-22T05:47:52;101660.84;;;4.06;100.00
35151;BME280;55720;51.972;4.624;2023-02-22T05:50:19;101637.75;;;4.04;100.00
35151;BME280;55720;51.972;4.624;2023-02-22T05:52:45;101629.88;;;4.07;100.00
35151;BME280;55720;51.972;4.624;2023-02-22T05:55:13;101611.94;;;4.06;100.00
35151;BME280;55720;51.972;4.624;2023-02-22T05:57:42;101596.72;;;4.10;100.00
35151;BME280;55720;51.972;4.624;2023-02-22T06:00:08;101594.00;;;4.10;100.00
35151;BME280;55720;51.972;4.624;2023-02-22T06:02:34;101551.09;;;4.12;100.00
35151;BME280;55720;51.972;4.624;2023-02-22T06:05:03;101547.78;;;4.20;100.00
35151;BME280;55720;51.972;4.624;2023-02-22T06:07:28;101554.88;;;4.21;100.00
35151;BME280;55720;51.972;4.624;2023-02-22T06:09:54;101551.59;;;4.24;100.00
35151;BME280;55720;51.972;4.624;2023-02-22T06:12:20;101541.81;;;4.13;100.00
35151;BME280;55720;51.972;4.624;2023-02-22T06:14:46;101521.97;;;4.18;100.00
35151;BME280;55720;51.972;4.624;2023-02-22T06:17:13;101524.44;;;4.14;100.00
35151;BME280;55720;51.972;4.624;2023-02-22T06:19:39;101513.84;;;4.23;100.00
35151;BME280;55720;51.972;4.624;2023-02-22T06:22:05;101501.63;;;4.15;100.00
35151;BME280;55720;51.972;4.624;2023-02-22T06:24:37;101448.88;;;4.06;100.00
35151;BME280;55720;51.972;4.624;2023-02-22T06:27:02;101473.63;;;4.10;100.00
35151;BME280;55720;51.972;4.624;2023-02-22T06:29:28;101485.59;;;4.04;100.00
35151;BME280;55720;51.972;4.624;2023-02-22T06:31:54;101484.25;;;4.01;100.00
35151;BME280;55720;51.972;4.624;2023-02-22T06:34:20;101482.59;;;4.05;100.00
35151;BME280;55720;51.972;4.624;2023-02-22T06:36:47;101477.72;;;4.12;100.00
35151;BME280;55720;51.972;4.624;2023-02-22T06:39:14;101474.44;;;4.15;100.00
35151;BME280;55720;51.972;4.624;2023-02-22T06:41:41;101475.53;;;4.19;100.00
35151;BME280;55720;51.972;4.624;2023-02-22T06:44:08;101482.03;;;4.18;100.00
35151;BME280;55720;51.972;4.624;2023-02-22T06:46:37;101484.75;;;4.18;100.00
35151;BME280;55720;51.972;4.624;2023-02-22T06:49:05;101484.47;;;4.10;100.00
35151;BME280;55720;51.972;4.624;2023-02-22T06:51:35;101464.09;;;4.22;100.00
35151;BME280;55720;51.972;4.624;2023-02-22T06:54:01;101440.97;;;4.20;100.00
35151;BME280;55720;51.972;4.624;2023-02-22T06:56:27;101449.94;;;4.25;100.00
35151;BME280;55720;51.972;4.624;2023-02-22T06:58:55;101453.22;;;4.17;100.00
35151;BME280;55720;51.972;4.624;2023-02-22T07:01:21;101460.84;;;4.15;100.00
35151;BME280;55720;51.972;4.624;2023-02-22T07:03:49;101465.19;;;4.21;100.00
35151;BME280;55720;51.972;4.624;2023-02-22T07:06:15;101462.75;;;4.15;100.00
35151;BME280;55720;51.972;4.624;2023-02-22T07:08:40;101457.56;;;4.18;100.00
35151;BME280;55720;51.972;4.624;2023-02-22T07:11:06;101464.06;;;4.27;100.00
35151;BME280;55720;51.972;4.624;2023-02-22T07:13:31;101466.78;;;4.37;100.00
35151;BME280;55720;51.972;4.624;2023-02-22T07:15:57;101475.75;;;4.33;100.00
35151;BME280;55720;51.972;4.624;2023-02-22T07:18:22;101414.88;;;4.34;100.00
35151;BME280;55720;51.972;4.624;2023-02-22T07:20:49;101483.63;;;4.34;100.00
35151;BME280;55720;51.972;4.624;2023-02-22T07:23:15;101485.53;;;4.39;100.00
35151;BME280;55720;51.972;4.624;2023-02-22T07:25:41;101486.88;;;4.41;100.00
35151;BME280;55720;51.972;4.624;2023-02-22T07:28:07;101474.69;;;4.34;100.00
35151;BME280;55720;51.972;4.624;2023-02-22T07:30:34;101467.84;;;4.41;100.00
35151;BME280;55720;51.972;4.624;2023-02-22T07:33:04;101472.50;;;4.41;100.00
35151;BME280;55720;51.972;4.624;2023-02-22T07:35:36;101462.66;;;4.45;100.00
35151;BME280;55720;51.972;4.624;2023-02-22T07:38:04;101483.06;;;4.47;100.00
35151;BME280;55720;51.972;4.624;2023-02-22T07:40:30;101497.75;;;4.46;100.00
35151;BME280;55720;51.972;4.624;2023-02-22T07:43:04;101499.13;;;4.44;100.00
35151;BME280;55720;51.972;4.624;2023-02-22T07:45:35;101507.50;;;4.53;100.00
35151;BME280;55720;51.972;4.624;2023-02-22T07:48:02;101516.50;;;4.48;100.00
35151;BME280;55720;51.972;4.624;2023-02-22T07:50:30;101508.63;;;4.52;100.00
35151;BME280;55720;51.972;4.624;2023-02-22T07:52:58;101518.94;;;4.55;100.00
35151;BME280;55720;51.972;4.624;2023-02-22T07:55:26;101526.00;;;4.61;100.00
35151;BME280;55720;51.972;4.624;2023-02-22T07:57:55;101540.16;;;4.63;100.00
35151;BME280;55720;51.972;4.624;2023-02-22T08:00:37;101546.06;;;4.80;100.00
35151;BME280;55720;51.972;4.624;2023-02-22T08:03:08;101554.28;;;4.70;100.00
35151;BME280;55720;51.972;4.624;2023-02-22T08:05:35;101544.47;;;4.74;100.00
35151;BME280;55720;51.972;4.624;2023-02-22T08:08:02;101531.09;;;4.82;100.00
35151;BME280;55720;51.972;4.624;2023-02-22T08:10:28;101535.66;;;4.97;100.00
35151;BME280;55720;51.972;4.624;2023-02-22T08:12:55;101554.78;;;4.72;100.00
35151;BME280;55720;51.972;4.624;2023-02-22T08:15:35;101566.50;;;4.77;100.00
35151;BME280;55720;51.972;4.624;2023-02-22T08:18:03;101570.03;;;4.68;100.00
35151;BME280;55720;51.972;4.624;2023-02-22T08:20:28;101565.66;;;4.82;100.00
35151;BME280;55720;51.972;4.624;2023-02-22T08:22:54;101571.06;;;4.92;100.00
35151;BME280;55720;51.972;4.624;2023-02-22T08:25:21;101566.75;;;4.81;100.00
35151;BME280;55720;51.972;4.624;2023-02-22T08:27:50;101555.53;;;4.92;100.00
35151;BME280;55720;51.972;4.624;2023-02-22T08:30:19;101576.50;;;4.97;100.00
35151;BME280;55720;51.972;4.624;2023-02-22T08:32:45;101587.38;;;4.97;100.00
35151;BME280;55720;51.972;4.624;2023-02-22T08:35:12;101607.53;;;4.91;100.00
35151;BME280;55720;51.972;4.624;2023-02-22T08:37:44;101614.03;;;5.00;100.00
35151;BME280;55720;51.972;4.624;2023-02-22T08:40:10;101626.78;;;5.15;100.00
35151;BME280;55720;51.972;4.624;2023-02-22T08:42:36;101629.50;;;5.15;100.00
35151;BME280;55720;51.972;4.624;2023-02-22T08:45:01;101622.13;;;5.30;100.00
35151;BME280;55720;51.972;4.624;2023-02-22T08:47:27;101643.66;;;5.17;100.00
35151;BME280;55720;51.972;4.624;2023-02-22T08:49:52;101663.47;;;5.32;100.00
35151;BME280;55720;51.972;4.624;2023-02-22T08:52:19;101662.91;;;5.45;100.00
35151;BME280;55720;51.972;4.624;2023-02-22T08:54:45;101674.03;;;5.54;100.00
35151;BME280;55720;51.972;4.624;2023-02-22T08:57:11;101679.25;;;5.45;100.00
35151;BME280;55720;51.972;4.624;2023-02-22T08:59:37;101691.75;;;5.46;100.00
35151;BME280;55720;51.972;4.624;2023-02-22T09:02:02;101692.28;;;5.54;100.00
35151;BME280;55720;51.972;4.624;2023-02-22T09:04:27;101697.78;;;5.33;100.00
35151;BME280;55720;51.972;4.624;2023-02-22T09:06:53;101711.69;;;5.37;100.00
35151;BME280;55720;51.972;4.624;2023-02-22T09:09:19;101719.50;;;5.64;100.00
35151;BME280;55720;51.972;4.624;2023-02-22T09:11:48;101707.50;;;5.65;100.00
35151;BME280;55720;51.972;4.624;2023-02-22T09:14:14;101703.16;;;5.64;100.00
35151;BME280;55720;51.972;4.624;2023-02-22T09:16:42;101707.31;;;5.46;100.00
35151;BME280;55720;51.972;4.624;2023-02-22T09:19:07;101691.97;;;5.65;100.00
35151;BME280;55720;51.972;4.624;2023-02-22T09:21:35;101687.22;;;5.96;100.00
35151;BME280;55720;51.972;4.624;2023-02-22T09:24:00;101685.78;;;6.09;100.00
35151;BME280;55720;51.972;4.624;2023-02-22T09:26:35;101671.97;;;5.90;100.00
35151;BME280;55720;51.972;4.624;2023-02-22T09:29:05;101660.97;;;6.10;100.00
35151;BME280;55720;51.972;4.624;2023-02-22T09:31:37;101653.88;;;6.09;100.00
35151;BME280;55720;51.972;4.624;2023-02-22T09:34:04;101658.41;;;6.29;100.00
35151;BME280;55720;51.972;4.624;2023-02-22T09:36:39;101653.78;;;6.24;100.00
35151;BME280;55720;51.972;4.624;2023-02-22T09:39:06;101637.88;;;6.36;100.00
35151;BME280;55720;51.972;4.624;2023-02-22T09:41:38;101599.41;;;6.38;100.00
35151;BME280;55720;51.972;4.624;2023-02-22T09:44:17;101538.03;;;6.64;100.00
35151;BME280;55720;51.972;4.624;2023-02-22T09:46:46;101508.38;;;6.58;100.00
35151;BME280;55720;51.972;4.624;2023-02-22T09:49:31;101476.75;;;6.57;100.00
35151;BME280;55720;51.972;4.624;2023-02-22T09:52:19;101419.44;;;6.57;100.00
35151;BME280;55720;51.972;4.624;2023-02-22T09:54:49;101382.56;;;6.59;100.00
35151;BME280;55720;51.972;4.624;2023-02-22T09:57:21;101338.84;;;6.46;100.00
35151;BME280;55720;51.972;4.624;2023-02-22T10:00:00;101295.63;;;6.53;100.00
35151;BME280;55720;51.972;4.624;2023-02-22T10:02:48;101248.44;;;6.71;100.00
35151;BME280;55720;51.972;4.624;2023-02-22T10:05:24;101210.41;;;6.61;100.00
35151;BME280;55720;51.972;4.624;2023-02-22T10:08:03;101164.91;;;6.88;100.00
35151;BME280;55720;51.972;4.624;2023-02-22T10:10:38;101141.44;;;6.55;100.00
35151;BME280;55720;51.972;4.624;2023-02-22T10:23:57;100963.00;;;7.47;100.00
35151;BME280;55720;51.972;4.624;2023-02-22T10:26:31;100911.97;;;7.78;100.00
35151;BME280;55720;51.972;4.624;2023-02-22T10:29:09;100854.97;;;7.93;100.00
35151;BME280;55720;51.972;4.624;2023-02-22T10:31:45;100765.91;;;8.01;100.00
35151;BME280;55720;51.972;4.624;2023-02-22T10:34:22;100685.47;;;7.93;100.00
35151;BME280;55720;51.972;4.624;2023-02-22T10:36:54;100628.75;;;8.33;100.00
35151;BME280;55720;51.972;4.624;2023-02-22T10:39:32;100557.44;;;8.47;100.00
35151;BME280;55720;51.972;4.624;2023-02-22T10:42:03;100502.78;;;8.04;100.00
35151;BME280;55720;51.972;4.624;2023-02-22T10:44:37;100464.00;;;8.11;100.00
35151;BME280;55720;51.972;4.624;2023-02-22T10:47:11;100442.03;;;7.99;100.00
35151;BME280;55720;51.972;4.624;2023-02-22T10:49:42;100411.16;;;8.53;100.00
35151;BME280;55720;51.972;4.624;2023-02-22T10:52:32;100385.66;;;8.90;100.00
35151;BME280;55720;51.972;4.624;2023-02-22T10:55:00;100363.53;;;9.37;100.00
35151;BME280;55720;51.972;4.624;2023-02-22T10:57:34;100370.16;;;9.15;100.00
35151;BME280;55720;51.972;4.624;2023-02-22T11:02:53;100378.63;;;9.64;100.00
35151;BME280;55720;51.972;4.624;2023-02-22T11:05:39;100398.91;;;9.09;100.00
35151;BME280;55720;51.972;4.624;2023-02-22T11:08:15;100412.03;;;8.95;100.00
35151;BME280;55720;51.972;4.624;2023-02-22T11:10:52;100424.09;;;8.65;100.00
35151;BME280;55720;51.972;4.624;2023-02-22T11:13:33;100410.75;;;9.22;100.00
35151;BME280;55720;51.972;4.624;2023-02-22T11:16:26;100419.63;;;9.39;100.00
35151;BME280;55720;51.972;4.624;2023-02-22T11:19:01;100420.78;;;9.71;100.00
35151;BME280;55720;51.972;4.624;2023-02-22T11:21:29;100440.19;;;9.87;100.00
35151;BME280;55720;51.972;4.624;2023-02-22T11:24:06;100463.91;;;9.42;100.00
35151;BME280;55720;51.972;4.624;2023-02-22T11:26:55;100485.78;;;9.29;100.00
35151;BME280;55720;51.972;4.624;2023-02-22T11:29:28;100471.59;;;9.27;100.00
35151;BME280;55720;51.972;4.624;2023-02-22T11:32:15;100488.19;;;9.02;100.00
35151;BME280;55720;51.972;4.624;2023-02-22T11:34:47;100486.50;;;8.80;100.00
35151;BME280;55720;51.972;4.624;2023-02-22T11:37:31;100479.75;;;8.86;100.00
35151;BME280;55720;51.972;4.624;2023-02-22T11:42:38;100470.00;;;8.97;100.00
35151;BME280;55720;51.972;4.624;2023-02-22T11:45:21;100446.47;;;9.46;100.00
35151;BME280;55720;51.972;4.624;2023-02-22T11:47:57;100464.91;;;9.16;100.00
35151;BME280;55720;51.972;4.624;2023-02-22T11:53:04;100479.44;;;9.08;100.00
35151;BME280;55720;51.972;4.624;2023-02-22T11:55:48;100477.38;;;9.05;100.00
35151;BME280;55720;51.972;4.624;2023-02-22T11:59:32;100453.63;;;9.38;100.00
35151;BME280;55720;51.972;4.624;2023-02-22T12:13:06;100476.47;;;9.84;100.00
35151;BME280;55720;51.972;4.624;2023-02-22T12:18:25;100484.56;;;10.01;100.00
35151;BME280;55720;51.972;4.624;2023-02-22T12:21:01;100508.16;;;9.31;100.00
35151;BME280;55720;51.972;4.624;2023-02-22T12:23:41;100481.13;;;10.04;100.00
35151;BME280;55720;51.972;4.624;2023-02-22T12:26:15;100487.28;;;10.22;100.00
35151;BME280;55720;51.972;4.624;2023-02-22T12:28:55;100504.31;;;10.27;100.00
35151;BME280;55720;51.972;4.624;2023-02-22T12:31:44;100509.81;;;10.07;100.00
35151;BME280;55720;51.972;4.624;2023-02-22T12:34:47;100493.09;;;10.65;100.00
35151;BME280;55720;51.972;4.624;2023-02-22T12:39:51;100516.53;;;10.51;100.00
35151;BME280;55720;51.972;4.624;2023-02-22T12:42:54;100537.22;;;9.95;100.00
35151;BME280;55720;51.972;4.624;2023-02-22T12:45:49;100538.88;;;9.87;100.00
35151;BME280;55720;51.972;4.624;2023-02-22T12:57:01;100527.75;;;10.25;100.00
35151;BME280;55720;51.972;4.624;2023-02-22T13:00:08;100533.38;;;10.28;100.00
35151;BME280;55720;51.972;4.624;2023-02-22T13:02:41;100535.28;;;10.49;100.00
35151;BME280;55720;51.972;4.624;2023-02-22T13:05:15;100556.78;;;10.47;100.00
35151;BME280;55720;51.972;4.624;2023-02-22T13:07:52;100562.94;;;10.44;100.00
35151;BME280;55720;51.972;4.624;2023-02-22T13:13:14;100558.56;;;10.30;100.00
35151;BME280;55720;51.972;4.624;2023-02-22T13:26:17;100515.94;;;9.92;100.00
35151;BME280;55720;51.972;4.624;2023-02-22T13:28:49;100510.78;;;9.90;100.00
35151;BME280;55720;51.972;4.624;2023-02-22T13:40:05;100486.28;;;10.26;100.00
35151;BME280;55720;51.972;4.624;2023-02-22T13:53:55;100467.31;;;10.01;100.00
35151;BME280;55720;51.972;4.624;2023-02-22T13:56:23;100460.44;;;10.07;100.00
35151;BME280;55720;51.972;4.624;2023-02-22T13:58:54;100457.97;;;10.14;100.00
35151;BME280;55720;51.972;4.624;2023-02-22T14:01:42;100453.78;;;10.16;100.00
35151;BME280;55720;51.972;4.624;2023-02-22T14:06:53;100454.41;;;10.46;100.00
35151;BME280;55720;51.972;4.624;2023-02-22T14:09:42;100460.81;;;10.50;100.00
35151;BME280;55720;51.972;4.624;2023-02-22T14:15:16;100465.63;;;10.41;100.00
35151;BME280;55720;51.972;4.624;2023-02-22T14:17:47;100465.25;;;10.30;100.00
35151;BME280;55720;51.972;4.624;2023-02-22T14:22:40;100452.47;;;10.34;100.00
35151;BME280;55720;51.972;4.624;2023-02-22T14:25:30;100456.06;;;9.94;100.00
35151;BME280;55720;51.972;4.624;2023-02-22T14:27:57;100451.72;;;9.93;100.00
35151;BME280;55720;51.972;4.624;2023-02-22T14:30:28;100433.41;;;9.84;100.00
35151;BME280;55720;51.972;4.624;2023-02-22T14:32:55;100432.31;;;9.98;100.00
35151;BME280;55720;51.972;4.624;2023-02-22T14:35:21;100425.44;;;9.92;100.00
35151;BME280;55720;51.972;4.624;2023-02-22T14:37:52;100417.84;;;9.76;100.00
35151;BME280;55720;51.972;4.624;2023-02-22T14:40:28;100409.69;;;9.68;100.00
35151;BME280;55720;51.972;4.624;2023-02-22T14:43:02;100400.63;;;9.55;100.00
35151;BME280;55720;51.972;4.624;2023-02-22T14:45:33;100397.75;;;9.52;100.00
35151;BME280;55720;51.972;4.624;2023-02-22T14:48:11;100396.34;;;9.46;100.00
35151;BME280;55720;51.972;4.624;2023-02-22T14:55:58;100383.38;;;9.55;100.00
35151;BME280;55720;51.972;4.624;2023-02-22T14:58:35;100383.25;;;9.51;100.00
35151;BME280;55720;51.972;4.624;2023-02-22T15:03:47;100378.53;;;9.39;100.00
35151;BME280;55720;51.972;4.624;2023-02-22T15:06:22;100372.38;;;9.43;100.00
35151;BME280;55720;51.972;4.624;2023-02-22T15:11:31;100358.53;;;9.39;100.00
35151;BME280;55720;51.972;4.624;2023-02-22T15:13:58;100360.53;;;9.30;100.00
35151;BME280;55720;51.972;4.624;2023-02-22T15:16:26;100356.34;;;9.32;100.00
35151;BME280;55720;51.972;4.624;2023-02-22T15:18:54;100356.59;;;9.39;100.00